Time;durP1;ratioP1;P1;durP2;ratioP2;P2;SDS_P1;SDS_P2;PMS_P1;PMS_P2;Temp;Humidity;BMP_temperature;BMP_pressure;BME280_temperature;BME280_humidity;BME280_pressure;Samples;Min_cycle;Max_cycle;Signal;HPM_P1;HPM_P2
2022/10/26 00:00:12;;;;;;;9.40;3.97;;;12.00;99.90;;;;;;5069790;28;20237;-88
2022/10/26 00:02:38;;;;;;;12.10;3.60;;;12.00;99.90;;;;;;5054242;28;20181;-88
2022/10/26 00:05:04;;;;;;;11.17;3.40;;;12.00;99.90;;;;;;5036822;28;20777;-88
2022/10/26 00:07:30;;;;;;;4.00;2.70;;;12.00;99.90;;;;;;5069747;28;20614;-88
2022/10/26 00:09:56;;;;;;;7.03;3.00;;;12.00;99.90;;;;;;5054521;28;20495;-88
2022/10/26 00:12:21;;;;;;;6.50;2.60;;;12.00;99.90;;;;;;5069901;28;20178;-88
2022/10/26 00:14:47;;;;;;;10.97;3.23;;;12.10;99.90;;;;;;5036354;28;20212;-88
2022/10/26 00:17:12;;;;;;;6.63;3.57;;;12.10;99.90;;;;;;5052912;28;20221;-88
2022/10/26 00:19:38;;;;;;;9.10;3.13;;;12.10;99.90;;;;;;5069436;28;20212;-88
2022/10/26 00:22:04;;;;;;;3.80;2.67;;;12.10;99.90;;;;;;5069880;28;20183;-88
2022/10/26 00:24:29;;;;;;;6.90;2.67;;;12.10;99.90;;;;;;5035971;28;20272;-87
2022/10/26 00:26:55;;;;;;;13.73;3.10;;;12.20;99.90;;;;;;5053289;28;20177;-88
2022/10/26 00:29:20;;;;;;;6.53;2.50;;;12.20;99.90;;;;;;5069983;28;20614;-88
2022/10/26 00:31:46;;;;;;;9.53;3.40;;;12.20;99.90;;;;;;5036027;28;20273;-88
2022/10/26 00:34:11;;;;;;;9.67;3.10;;;12.20;99.90;;;;;;5036390;28;20186;-88
2022/10/26 00:36:37;;;;;;;4.50;2.67;;;12.20;99.90;;;;;;5052537;28;20221;-88
2022/10/26 00:39:03;;;;;;;4.33;3.00;;;12.20;99.90;;;;;;5054314;28;20212;-88
2022/10/26 00:41:31;;;;;;;7.90;2.53;;;12.20;99.90;;;;;;5069567;28;20178;-85
2022/10/26 00:43:58;;;;;;;11.87;4.30;;;12.20;99.90;;;;;;5053743;28;20515;-87
2022/10/26 00:46:26;;;;;;;5.47;3.00;;;12.20;99.90;;;;;;5035785;28;20515;-88
2022/10/26 00:49:03;;;;;;;12.33;3.70;;;12.20;99.90;;;;;;5035441;28;20440;-87
2022/10/26 00:51:33;;;;;;;9.83;3.43;;;12.20;99.90;;;;;;5053895;28;20920;-85
2022/10/26 00:54:07;;;;;;;8.63;2.90;;;12.20;99.90;;;;;;5053850;28;20767;-88
2022/10/26 00:56:34;;;;;;;8.10;2.60;;;12.20;99.90;;;;;;5053087;28;20456;-89
2022/10/26 00:59:02;;;;;;;8.00;3.23;;;12.20;99.90;;;;;;5053592;28;20459;-88
2022/10/26 01:01:32;;;;;;;7.80;4.00;;;12.30;99.90;;;;;;5035401;28;20428;-88
2022/10/26 01:03:59;;;;;;;10.77;3.13;;;12.30;99.90;;;;;;5035782;28;20412;-88
2022/10/26 01:06:26;;;;;;;9.00;2.57;;;12.30;99.90;;;;;;5068933;28;20443;-88
2022/10/26 01:08:53;;;;;;;4.60;2.80;;;12.40;99.90;;;;;;5053224;28;20420;-88
2022/10/26 01:11:18;;;;;;;7.37;2.40;;;12.40;99.90;;;;;;5054332;28;20912;-88
2022/10/26 01:13:45;;;;;;;5.07;2.33;;;12.40;99.90;;;;;;5053219;28;20510;-88
2022/10/26 01:16:31;;;;;;;10.53;3.37;;;12.40;99.90;;;;;;5035708;28;20236;-88
2022/10/26 01:19:41;;;;;;;6.13;2.80;;;12.50;99.90;;;;;;5069085;28;20801;-88
2022/10/26 01:22:09;;;;;;;6.90;3.30;;;12.40;99.90;;;;;;5053033;28;20465;-87
2022/10/26 01:25:14;;;;;;;8.47;4.00;;;12.50;99.90;;;;;;5053060;28;20416;-87
2022/10/26 01:27:47;;;;;;;18.00;4.53;;;12.50;99.90;;;;;;5053144;28;20437;-87
2022/10/26 01:30:15;;;;;;;6.17;3.47;;;12.40;99.90;;;;;;5053195;28;20453;-87
2022/10/26 01:32:50;;;;;;;8.90;4.47;;;12.50;99.90;;;;;;5052597;28;20454;-88
2022/10/26 01:35:27;;;;;;;11.73;4.07;;;12.50;99.90;;;;;;5035428;28;20415;-88
2022/10/26 01:38:14;;;;;;;7.73;3.60;;;12.50;99.90;;;;;;5035114;28;20503;-88
2022/10/26 01:40:53;;;;;;;9.17;4.70;;;12.50;99.90;;;;;;5053000;28;20473;-88
2022/10/26 01:43:19;;;;;;;13.50;5.43;;;12.50;99.90;;;;;;5053243;28;20408;-88
2022/10/26 01:45:47;;;;;;;11.03;5.73;;;12.40;99.90;;;;;;5069205;28;20485;-89
2022/10/26 01:48:16;;;;;;;11.37;6.17;;;12.40;99.90;;;;;;5072465;28;20920;-87
2022/10/26 01:50:46;;;;;;;8.80;5.87;;;12.40;99.90;;;;;;5039126;28;20482;-88
2022/10/26 01:53:13;;;;;;;11.73;4.93;;;12.40;99.90;;;;;;5057422;28;20411;-88
2022/10/26 01:55:51;;;;;;;13.20;5.90;;;12.40;99.90;;;;;;5072083;28;20478;-88
2022/10/26 01:58:41;;;;;;;9.67;6.20;;;12.50;99.90;;;;;;5056849;28;20494;-88
2022/10/26 02:01:31;;;;;;;8.97;5.70;;;12.40;99.90;;;;;;5057717;28;20407;-89
2022/10/26 02:04:18;;;;;;;13.03;7.00;;;12.40;99.90;;;;;;5038984;28;20419;-88
2022/10/26 02:07:04;;;;;;;10.10;6.33;;;12.50;99.90;;;;;;5056745;28;20412;-88
2022/10/26 02:10:14;;;;;;;10.10;5.80;;;12.50;99.90;;;;;;5057329;28;20392;-88
2022/10/26 02:12:44;;;;;;;9.80;5.70;;;12.50;99.90;;;;;;5033278;28;20519;-88
2022/10/26 02:15:43;;;;;;;17.07;6.20;;;12.50;99.90;;;;;;5058116;28;20731;-88
2022/10/26 02:18:26;;;;;;;10.87;4.90;;;12.50;99.90;;;;;;5058178;28;20506;-89
2022/10/26 02:20:57;;;;;;;9.87;4.47;;;12.60;99.90;;;;;;5038568;28;20508;-88
2022/10/26 02:23:25;;;;;;;17.93;5.00;;;12.60;99.90;;;;;;5077065;28;20799;-88
2022/10/26 02:25:56;;;;;;;6.30;3.87;;;12.60;99.90;;;;;;5076612;28;20407;-88
2022/10/26 02:28:31;;;;;;;6.30;4.00;;;12.70;99.90;;;;;;5076750;28;20417;-89
2022/10/26 02:30:59;;;;;;;7.97;4.90;;;12.70;99.90;;;;;;5076367;28;20417;-88
2022/10/26 02:33:30;;;;;;;5.10;3.73;;;12.70;99.90;;;;;;5075671;28;20442;-89
2022/10/26 02:35:59;;;;;;;8.87;3.93;;;12.70;99.90;;;;;;5075031;28;20466;-89
2022/10/26 02:38:28;;;;;;;9.70;3.60;;;12.70;99.90;;;;;;5075001;28;20421;-89
2022/10/26 02:40:55;;;;;;;8.37;3.80;;;12.70;99.90;;;;;;5075324;28;20419;-89
2022/10/26 02:43:22;;;;;;;7.93;3.47;;;12.80;99.90;;;;;;5075433;28;20475;-88
2022/10/26 02:45:55;;;;;;;9.40;3.43;;;12.70;99.90;;;;;;5075035;28;20427;-88
2022/10/26 02:48:22;;;;;;;7.30;3.23;;;12.80;99.90;;;;;;5075532;28;20419;-88
2022/10/26 02:50:50;;;;;;;6.47;3.07;;;12.80;99.90;;;;;;5076298;28;20498;-88
2022/10/26 02:53:25;;;;;;;5.77;3.57;;;12.80;99.90;;;;;;5075122;28;20419;-88
2022/10/26 02:55:51;;;;;;;9.27;2.90;;;12.80;99.90;;;;;;5075849;28;20503;-88
2022/10/26 02:58:26;;;;;;;7.93;2.67;;;12.90;99.90;;;;;;5073657;28;20529;-88
2022/10/26 03:00:52;;;;;;;10.50;2.90;;;12.90;99.90;;;;;;5074736;28;20429;-89
2022/10/26 03:03:18;;;;;;;8.17;3.23;;;13.00;99.90;;;;;;5074608;28;20407;-88
2022/10/26 03:05:44;;;;;;;7.57;3.83;;;13.00;99.90;;;;;;5074530;28;20485;-89
2022/10/26 03:08:09;;;;;;;10.80;4.07;;;13.10;99.90;;;;;;5074419;28;20411;-88
2022/10/26 03:10:40;;;;;;;9.73;4.60;;;13.10;99.90;;;;;;5074071;28;20173;-89
2022/10/26 03:13:05;;;;;;;9.80;4.70;;;13.10;99.90;;;;;;5074713;28;20741;-87
2022/10/26 03:15:31;;;;;;;14.30;3.93;;;13.00;99.90;;;;;;5075344;28;20494;-86
2022/10/26 03:17:56;;;;;;;13.50;4.80;;;13.00;99.90;;;;;;5075293;28;20579;-87
2022/10/26 03:20:22;;;;;;;6.60;4.10;;;13.00;99.90;;;;;;5075507;28;20195;-88
2022/10/26 03:22:47;;;;;;;6.30;4.10;;;13.00;99.90;;;;;;5074307;28;20181;-87
2022/10/26 03:25:14;;;;;;;10.37;4.20;;;13.10;99.90;;;;;;5075742;28;20173;-87
2022/10/26 03:27:40;;;;;;;7.93;3.50;;;13.10;99.90;;;;;;5057743;28;20276;-87
2022/10/26 03:30:06;;;;;;;7.13;3.63;;;13.10;99.90;;;;;;5074481;28;20426;-88
2022/10/26 03:32:32;;;;;;;8.60;3.70;;;13.20;99.90;;;;;;5074689;28;20534;-89
2022/10/26 03:34:58;;;;;;;4.23;2.70;;;13.20;99.90;;;;;;5074154;28;20519;-89
2022/10/26 03:37:24;;;;;;;9.03;3.03;;;13.20;99.90;;;;;;5057839;28;20220;-89
2022/10/26 03:39:49;;;;;;;9.43;3.07;;;13.30;99.90;;;;;;5057260;28;20176;-90
2022/10/26 03:42:15;;;;;;;5.30;2.50;;;13.30;99.90;;;;;;5073916;28;20411;-87
2022/10/26 03:44:40;;;;;;;8.03;2.20;;;13.30;99.90;;;;;;5056992;28;20181;-88
2022/10/26 03:47:06;;;;;;;4.27;2.10;;;13.30;99.90;;;;;;5057919;28;20180;-90
2022/10/26 03:49:31;;;;;;;3.60;1.53;;;13.30;99.90;;;;;;5074763;28;20545;-89
2022/10/26 03:51:57;;;;;;;4.60;1.47;;;13.30;99.90;;;;;;5074740;28;20177;-89
2022/10/26 03:54:23;;;;;;;44.67;2.60;;;13.40;99.90;;;;;;5057042;28;20185;-89
2022/10/26 03:56:49;;;;;;;3.03;1.67;;;13.40;99.90;;;;;;5056945;28;20307;-89
2022/10/26 03:59:15;;;;;;;5.83;2.03;;;13.40;99.90;;;;;;5056499;28;20574;-89
2022/10/26 04:01:40;;;;;;;8.20;1.60;;;13.40;99.90;;;;;;5056714;28;20191;-86
2022/10/26 04:04:06;;;;;;;8.20;1.70;;;13.40;99.90;;;;;;5074686;28;20239;-88
2022/10/26 04:06:31;;;;;;;3.00;1.20;;;13.40;99.90;;;;;;5073850;28;20192;-88
2022/10/26 04:09:01;;;;;;;2.00;1.50;;;13.40;99.90;;;;;;5073713;28;20181;-88
2022/10/26 04:11:27;;;;;;;1.90;1.60;;;13.40;99.90;;;;;;5057248;28;20272;-89
2022/10/26 04:13:54;;;;;;;5.73;1.90;;;13.40;99.90;;;;;;5074263;28;20494;-88
2022/10/26 04:16:20;;;;;;;3.80;1.27;;;13.40;99.90;;;;;;5065672;28;20470;-87
2022/10/26 04:18:45;;;;;;;6.37;1.63;;;13.40;99.90;;;;;;5073724;28;20446;-87
2022/10/26 04:21:11;;;;;;;2.87;1.40;;;13.40;99.90;;;;;;5074473;28;20408;-88
2022/10/26 04:23:37;;;;;;;4.40;1.50;;;13.40;99.90;;;;;;5074449;28;20258;-88
2022/10/26 04:26:04;;;;;;;5.50;1.90;;;13.40;99.90;;;;;;5040143;28;20195;-90
2022/10/26 04:28:30;;;;;;;1.80;1.40;;;13.50;99.90;;;;;;5074489;28;20176;-88
2022/10/26 04:30:55;;;;;;;2.80;1.67;;;13.50;99.90;;;;;;5056923;28;20420;-88
2022/10/26 04:33:21;;;;;;;3.90;1.30;;;13.50;99.90;;;;;;5056292;28;20234;-89
2022/10/26 04:35:47;;;;;;;4.37;1.50;;;13.50;99.90;;;;;;5055847;28;20238;-89
2022/10/26 04:38:12;;;;;;;4.70;1.80;;;13.50;99.90;;;;;;5074255;28;20180;-89
2022/10/26 04:40:38;;;;;;;2.97;1.20;;;13.50;99.90;;;;;;5040536;28;20184;-89
2022/10/26 04:43:04;;;;;;;1.97;1.23;;;13.60;99.90;;;;;;5039502;28;20203;-88
2022/10/26 04:45:29;;;;;;;7.30;2.33;;;13.60;99.90;;;;;;5075282;28;20180;-87
2022/10/26 04:48:07;;;;;;;3.00;1.60;;;13.60;99.90;;;;;;5056529;28;20653;-90
2022/10/26 04:50:33;;;;;;;2.90;1.50;;;13.60;99.90;;;;;;5056940;28;20188;-90
2022/10/26 04:52:59;;;;;;;3.30;1.70;;;13.60;99.90;;;;;;5056282;28;20422;-90
2022/10/26 04:55:25;;;;;;;2.43;1.30;;;13.60;99.90;;;;;;5060286;28;20408;-89
2022/10/26 04:57:50;;;;;;;2.40;1.40;;;13.60;99.90;;;;;;5043328;28;20880;-89
2022/10/26 05:00:16;;;;;;;4.70;1.20;;;13.60;99.90;;;;;;5070772;28;20225;-89
2022/10/26 05:02:42;;;;;;;2.53;1.63;;;13.70;99.90;;;;;;5070844;28;20247;-89
2022/10/26 05:05:07;;;;;;;4.50;1.50;;;13.60;99.90;;;;;;5052569;28;20181;-90
2022/10/26 05:07:33;;;;;;;6.40;1.70;;;13.70;99.90;;;;;;5072169;28;20312;-88
2022/10/26 05:09:59;;;;;;;5.40;1.50;;;13.70;99.90;;;;;;5070962;28;20177;-90
2022/10/26 05:12:24;;;;;;;4.60;1.50;;;13.70;99.90;;;;;;5053063;28;20177;-90
2022/10/26 05:14:50;;;;;;;5.23;1.30;;;13.70;99.90;;;;;;5052930;28;20207;-88
2022/10/26 05:17:15;;;;;;;2.03;1.30;;;13.80;99.90;;;;;;5036499;28;20704;-89
2022/10/26 05:19:41;;;;;;;4.40;1.40;;;13.80;99.90;;;;;;5069398;28;20177;-91
2022/10/26 05:22:07;;;;;;;3.40;1.50;;;13.80;99.90;;;;;;5035397;28;20177;-90
2022/10/26 05:24:32;;;;;;;3.10;1.60;;;13.90;99.90;;;;;;5053989;28;20197;-89
2022/10/26 05:26:58;;;;;;;2.53;1.27;;;13.90;99.90;;;;;;5052136;28;20185;-87
2022/10/26 05:29:23;;;;;;;3.20;1.50;;;13.90;99.90;;;;;;5035967;28;20184;-87
2022/10/26 05:31:49;;;;;;;2.83;1.07;;;13.80;99.90;;;;;;5053941;28;20177;-88
2022/10/26 05:34:14;;;;;;;2.07;1.40;;;13.90;99.90;;;;;;5052879;28;20239;-88
2022/10/26 05:36:40;;;;;;;2.23;1.30;;;13.90;99.90;;;;;;5052655;28;20401;-89
2022/10/26 05:39:06;;;;;;;4.83;1.13;;;13.90;99.90;;;;;;5052372;28;20296;-89
2022/10/26 05:41:31;;;;;;;2.77;1.43;;;13.90;99.90;;;;;;5069232;28;20177;-89
2022/10/26 05:43:57;;;;;;;2.77;1.20;;;13.90;99.90;;;;;;5069495;28;20181;-90
2022/10/26 05:46:22;;;;;;;2.57;1.40;;;14.00;99.90;;;;;;5052671;28;20219;-89
2022/10/26 05:48:48;;;;;;;2.43;1.30;;;14.00;99.90;;;;;;5036337;28;20190;-87
2022/10/26 05:51:14;;;;;;;2.23;1.10;;;14.00;99.90;;;;;;5036860;28;20198;-89
2022/10/26 05:53:40;;;;;;;2.50;1.30;;;14.10;99.90;;;;;;5052438;28;20185;-90
2022/10/26 05:56:20;;;;;;;3.23;1.33;;;14.10;99.90;;;;;;5070181;28;20638;-89
2022/10/26 05:58:49;;;;;;;1.97;1.20;;;14.20;99.90;;;;;;5070414;28;20321;-89
2022/10/26 06:01:29;;;;;;;4.80;1.30;;;14.20;99.90;;;;;;5036397;28;20450;-89
2022/10/26 06:04:12;;;;;;;2.27;1.57;;;14.20;99.90;;;;;;5055085;28;20400;-89
2022/10/26 06:06:42;;;;;;;2.33;0.90;;;14.20;99.90;;;;;;5038292;28;20431;-89
2022/10/26 06:09:10;;;;;;;1.43;1.23;;;14.20;99.90;;;;;;5069695;28;20606;-89
2022/10/26 06:11:36;;;;;;;3.87;1.57;;;14.20;99.90;;;;;;5054695;28;20438;-90
2022/10/26 06:14:02;;;;;;;6.53;1.87;;;14.10;99.90;;;;;;5070959;28;20416;-89
2022/10/26 06:17:03;;;;;;;4.53;1.60;;;14.10;99.90;;;;;;5071812;28;20741;-90
2022/10/26 06:19:46;;;;;;;2.07;1.43;;;14.10;99.90;;;;;;5006340;28;20436;-90
2022/10/26 06:22:44;;;;;;;6.97;1.63;;;14.10;99.90;;;;;;5057746;28;20404;-90
2022/10/26 06:25:44;;;;;;;4.57;1.50;;;14.00;99.90;;;;;;5039818;28;20428;-90
2022/10/26 06:28:22;;;;;;;4.50;1.60;;;13.90;99.90;;;;;;5055426;28;20424;-91
2022/10/26 06:30:47;;;;;;;5.60;1.80;;;13.90;99.90;;;;;;5035899;28;20416;-89
2022/10/26 06:33:14;;;;;;;3.07;1.60;;;13.80;99.90;;;;;;5038041;28;20452;-90
2022/10/26 06:35:39;;;;;;;3.43;1.77;;;13.70;99.90;;;;;;5055588;28;20185;-89
2022/10/26 06:38:21;;;;;;;5.57;1.73;;;13.70;99.90;;;;;;5056784;28;20495;-88
2022/10/26 06:40:49;;;;;;;2.40;2.00;;;13.60;99.90;;;;;;5039639;28;20243;-88
2022/10/26 06:43:35;;;;;;;6.30;1.90;;;13.60;99.90;;;;;;5056545;28;20419;-88
2022/10/26 06:46:21;;;;;;;5.00;1.70;;;13.60;99.90;;;;;;5037905;28;20463;-87
2022/10/26 06:49:18;;;;;;;3.33;1.63;;;13.50;99.90;;;;;;5037988;28;20446;-88
2022/10/26 06:51:57;;;;;;;3.20;1.40;;;13.50;99.90;;;;;;5038741;28;20427;-89
2022/10/26 06:54:43;;;;;;;2.80;1.67;;;13.40;99.90;;;;;;5056423;28;20403;-88
2022/10/26 06:57:11;;;;;;;8.00;2.23;;;13.40;99.90;;;;;;5071900;28;20459;-88
2022/10/26 06:59:50;;;;;;;3.03;1.57;;;13.30;99.90;;;;;;5037894;28;20455;-88
2022/10/26 07:02:16;;;;;;;6.90;1.80;;;13.30;99.90;;;;;;5056107;28;20961;-89
2022/10/26 07:04:43;;;;;;;6.63;2.10;;;13.30;99.90;;;;;;5071917;28;20416;-89
2022/10/26 07:07:12;;;;;;;4.83;2.07;;;13.30;99.90;;;;;;5037955;28;20424;-89
2022/10/26 07:09:38;;;;;;;4.63;1.63;;;13.40;99.90;;;;;;5038571;28;20408;-89
2022/10/26 07:12:04;;;;;;;3.30;2.00;;;13.40;99.90;;;;;;5037997;28;20435;-89
2022/10/26 07:14:29;;;;;;;5.00;1.70;;;13.40;99.90;;;;;;5054817;28;20185;-89
2022/10/26 07:16:55;;;;;;;5.77;1.93;;;13.40;99.90;;;;;;5071358;28;20220;-90
2022/10/26 07:19:21;;;;;;;5.70;2.50;;;13.50;99.90;;;;;;5038366;28;20193;-89
2022/10/26 07:21:47;;;;;;;6.53;2.70;;;13.50;99.90;;;;;;5071639;28;20423;-89
2022/10/26 07:24:13;;;;;;;5.73;2.33;;;13.50;99.90;;;;;;5056307;28;20404;-89
2022/10/26 07:26:38;;;;;;;3.60;2.17;;;13.50;99.90;;;;;;5054842;28;20185;-88
2022/10/26 07:29:04;;;;;;;2.93;1.80;;;13.50;99.90;;;;;;5037478;28;20552;-89
2022/10/26 07:31:29;;;;;;;3.47;2.10;;;13.50;99.90;;;;;;5038072;28;20300;-89
2022/10/26 07:33:55;;;;;;;6.93;2.57;;;13.50;99.90;;;;;;5071126;28;20644;-89
2022/10/26 07:36:21;;;;;;;5.70;2.30;;;13.50;99.90;;;;;;5054712;28;20221;-90
2022/10/26 07:38:49;;;;;;;7.07;2.23;;;13.50;99.90;;;;;;5038127;28;20268;-90
2022/10/26 07:41:15;;;;;;;5.70;2.80;;;13.50;99.90;;;;;;5070291;28;20416;-89
2022/10/26 07:43:40;;;;;;;7.30;2.33;;;13.50;99.90;;;;;;5070590;28;20420;-90
2022/10/26 07:46:06;;;;;;;10.40;2.57;;;13.60;99.90;;;;;;5054063;28;20653;-90
2022/10/26 07:48:32;;;;;;;6.47;2.30;;;13.60;99.90;;;;;;5054468;28;20231;-90
2022/10/26 07:51:00;;;;;;;4.80;2.10;;;13.70;99.90;;;;;;5054316;28;20614;-88
2022/10/26 07:53:25;;;;;;;4.43;2.40;;;13.70;99.90;;;;;;5071086;28;20213;-89
2022/10/26 07:55:55;;;;;;;9.20;2.20;;;13.70;99.90;;;;;;5055044;28;20514;-89
2022/10/26 07:58:24;;;;;;;8.50;2.33;;;13.80;99.90;;;;;;5039469;28;20699;-89
2022/10/26 08:00:50;;;;;;;6.03;2.47;;;13.80;99.90;;;;;;5038064;28;20430;-90
2022/10/26 08:03:17;;;;;;;6.50;2.17;;;13.90;99.90;;;;;;5037661;28;20424;-89
2022/10/26 08:05:46;;;;;;;6.63;2.27;;;14.00;99.90;;;;;;5053771;28;20455;-89
2022/10/26 08:08:12;;;;;;;5.50;1.90;;;14.10;99.90;;;;;;5054689;28;20487;-89
2022/10/26 08:10:42;;;;;;;6.27;2.27;;;14.10;99.90;;;;;;5037199;28;20435;-89
2022/10/26 08:13:08;;;;;;;6.83;2.33;;;14.20;99.90;;;;;;5037330;28;20439;-90
2022/10/26 08:15:34;;;;;;;4.37;2.00;;;14.30;99.90;;;;;;5070358;28;20820;-89
2022/10/26 08:17:59;;;;;;;3.43;1.93;;;14.40;99.90;;;;;;5070902;28;20185;-89
2022/10/26 08:20:25;;;;;;;8.67;2.50;;;14.50;99.90;;;;;;5070735;28;20537;-89
2022/10/26 08:22:51;;;;;;;3.40;2.00;;;14.60;99.90;;;;;;5055048;28;20232;-90
2022/10/26 08:25:17;;;;;;;2.30;1.70;;;14.70;99.90;;;;;;5053236;28;20653;-89
2022/10/26 08:27:43;;;;;;;4.60;1.77;;;14.90;99.90;;;;;;5053342;28;20435;-89
2022/10/26 08:30:09;;;;;;;4.07;1.83;;;15.20;99.90;;;;;;5053184;28;20220;-89
2022/10/26 08:32:34;;;;;;;4.00;1.80;;;15.30;99.90;;;;;;5069837;28;20609;-89
2022/10/26 08:35:00;;;;;;;5.00;1.90;;;15.50;99.90;;;;;;5070254;28;20404;-89
2022/10/26 08:37:26;;;;;;;5.77;1.63;;;15.60;99.90;;;;;;5070396;28;20204;-89
2022/10/26 08:39:52;;;;;;;4.80;1.80;;;15.70;99.90;;;;;;5037394;28;20216;-89
2022/10/26 08:42:27;;;;;;;2.63;1.67;;;15.80;99.90;;;;;;5053434;28;20420;-89
2022/10/26 08:44:58;;;;;;;4.43;1.93;;;15.80;99.90;;;;;;5055198;28;20168;-89
2022/10/26 08:47:36;;;;;;;3.23;1.40;;;15.90;99.90;;;;;;5055082;28;20404;-90
2022/10/26 08:50:25;;;;;;;3.60;2.10;;;15.90;99.90;;;;;;5055962;28;20461;-90
2022/10/26 08:53:01;;;;;;;4.93;1.67;;;16.10;99.90;;;;;;5037983;28;20429;-90
2022/10/26 08:55:40;;;;;;;3.83;2.20;;;16.10;99.90;;;;;;5055554;28;20385;-89
2022/10/26 08:58:19;;;;;;;4.03;2.40;;;16.10;99.90;;;;;;5037197;28;20795;-88
2022/10/26 09:00:48;;;;;;;3.83;1.70;;;16.20;99.90;;;;;;5038502;28;20434;-90
2022/10/26 09:03:15;;;;;;;6.80;1.50;;;16.30;99.90;;;;;;5037171;28;21057;-89
2022/10/26 09:05:56;;;;;;;2.80;1.10;;;16.30;99.90;;;;;;5038015;28;20510;-89
2022/10/26 09:08:42;;;;;;;3.70;1.57;;;16.20;99.90;;;;;;5070403;28;20419;-89
2022/10/26 09:11:53;;;;;;;5.27;2.00;;;16.20;99.90;;;;;;5055866;28;20470;-89
2022/10/26 09:14:37;;;;;;;4.53;1.60;;;16.40;99.90;;;;;;5020820;28;20860;-90
2022/10/26 09:17:21;;;;;;;3.00;1.50;;;16.70;99.90;;;;;;5037261;28;20566;-89
2022/10/26 09:19:58;;;;;;;2.53;1.50;;;16.90;99.90;;;;;;5037342;28;20418;-90
2022/10/26 09:22:36;;;;;;;3.60;1.53;;;17.20;99.90;;;;;;5037184;28;20421;-90
2022/10/26 09:25:22;;;;;;;3.43;1.50;;;17.40;99.90;;;;;;5037978;28;20407;-90
2022/10/26 09:27:55;;;;;;;6.10;1.60;;;17.70;99.90;;;;;;5038349;28;20452;-90
2022/10/26 09:30:21;;;;;;;3.77;1.30;;;18.00;99.90;;;;;;5039090;28;20460;-90
2022/10/26 09:32:49;;;;;;;2.83;1.60;;;18.10;99.90;;;;;;5071425;28;20391;-91
2022/10/26 09:35:22;;;;;;;4.13;1.70;;;18.20;99.90;;;;;;5054534;28;20866;-90
2022/10/26 09:38:03;;;;;;;2.27;1.37;;;18.20;99.90;;;;;;5054129;28;20913;-90
2022/10/26 09:40:49;;;;;;;4.40;1.70;;;18.70;99.90;;;;;;5054743;28;20423;-90
2022/10/26 09:43:26;;;;;;;2.80;1.77;;;19.00;99.90;;;;;;5070834;28;20438;-90
2022/10/26 09:45:52;;;;;;;4.33;1.70;;;19.00;99.90;;;;;;5058245;28;20407;-91
2022/10/26 09:48:32;;;;;;;5.80;1.40;;;19.10;99.90;;;;;;5055522;28;20402;-91
2022/10/26 09:50:59;;;;;;;2.50;1.40;;;19.30;99.90;;;;;;5038669;28;20796;-91
2022/10/26 09:53:25;;;;;;;5.23;1.70;;;19.70;99.90;;;;;;5074933;28;20436;-91
2022/10/26 09:56:06;;;;;;;4.53;1.30;;;20.00;99.90;;;;;;5056366;28;21016;-91
2022/10/26 09:58:41;;;;;;;4.57;1.60;;;20.10;99.90;;;;;;5038035;28;20485;-91
2022/10/26 10:01:33;;;;;;;5.03;1.60;;;20.50;99.90;;;;;;5037829;28;20518;-91
2022/10/26 10:04:30;;;;;;;5.73;1.53;;;20.90;99.90;;;;;;5036949;28;20932;-91
2022/10/26 10:07:16;;;;;;;3.50;1.93;;;21.30;99.90;;;;;;5043580;28;20864;-91
2022/10/26 10:09:42;;;;;;;5.40;1.87;;;21.60;99.90;;;;;;5060855;28;20428;-91
2022/10/26 10:12:20;;;;;;;4.60;1.87;;;21.80;99.90;;;;;;5040885;28;20454;-90
2022/10/26 10:14:57;;;;;;;3.83;1.67;;;22.00;99.90;;;;;;5058690;28;20537;-91
2022/10/26 10:17:23;;;;;;;7.93;1.50;;;21.90;99.90;;;;;;5075709;28;20498;-88
2022/10/26 10:19:50;;;;;;;10.53;2.23;;;22.30;99.90;;;;;;5059737;28;20451;-91
2022/10/26 10:22:18;;;;;;;2.23;1.43;;;22.90;99.90;;;;;;5076081;28;20770;-91
2022/10/26 10:25:20;;;;;;;4.90;1.40;;;22.80;99.90;;;;;;5040373;28;20554;-90
2022/10/26 10:27:53;;;;;;;3.53;1.70;;;23.20;99.90;;;;;;5058041;28;20412;-91
2022/10/26 10:30:40;;;;;;;4.60;1.70;;;23.70;99.90;;;;;;5073491;28;20424;-91
2022/10/26 10:33:11;;;;;;;6.27;2.27;;;23.30;99.90;;;;;;5040550;28;20481;-90
2022/10/26 10:35:45;;;;;;;9.30;1.63;;;24.40;99.90;;;;;;5074231;28;20486;-90
2022/10/26 10:38:15;;;;;;;10.37;1.77;;;24.30;99.90;;;;;;5045724;28;20462;-91
2022/10/26 10:40:53;;;;;;;5.90;1.80;;;24.20;99.90;;;;;;5044142;28;20430;-90
2022/10/26 10:43:20;;;;;;;4.20;1.70;;;24.50;99.90;;;;;;5044059;28;20419;-91
2022/10/26 10:45:51;;;;;;;5.07;1.17;;;24.50;99.90;;;;;;5076100;28;20424;-92
2022/10/26 10:48:24;;;;;;;3.23;1.63;;;24.50;99.90;;;;;;5073274;28;20499;-90
2022/10/26 10:51:02;;;;;;;4.63;1.77;;;24.60;99.90;;;;;;5080703;28;20481;-91
2022/10/26 10:53:45;;;;;;;2.50;1.60;;;24.90;99.90;;;;;;5040908;28;20470;-90
2022/10/26 10:56:19;;;;;;;2.73;1.40;;;25.10;99.90;;;;;;5058025;28;20819;-90
2022/10/26 10:59:09;;;;;;;5.00;1.43;;;25.00;99.90;;;;;;5056857;28;20455;-89
2022/10/26 11:01:44;;;;;;;3.07;1.60;;;24.90;99.90;;;;;;5039889;28;20771;-90
2022/10/26 11:04:55;;;;;;;2.20;1.00;;;24.90;99.90;;;;;;5073754;28;20431;-90
2022/10/26 11:07:24;;;;;;;2.13;1.40;;;25.10;99.90;;;;;;5036688;28;20798;-90
2022/10/26 11:09:52;;;;;;;4.30;1.30;;;24.70;99.90;;;;;;5073034;28;20466;-90
2022/10/26 11:12:24;;;;;;;5.27;1.60;;;24.70;99.90;;;;;;5058309;28;20505;-90
2022/10/26 11:14:57;;;;;;;4.40;2.07;;;24.70;99.90;;;;;;5059231;28;20424;-90
2022/10/26 11:17:31;;;;;;;2.80;1.40;;;24.50;99.90;;;;;;5057911;28;20447;-90
2022/10/26 11:20:10;;;;;;;2.00;1.33;;;24.40;99.90;;;;;;5060956;28;20506;-91
2022/10/26 11:22:44;;;;;;;5.47;1.50;;;24.50;99.90;;;;;;5062468;28;20482;-89
2022/10/26 11:25:29;;;;;;;3.70;1.67;;;24.20;99.90;;;;;;5062706;28;20410;-90
2022/10/26 11:28:09;;;;;;;1.93;1.33;;;23.90;99.90;;;;;;5046021;28;20427;-90
2022/10/26 11:30:42;;;;;;;3.00;1.43;;;24.20;99.90;;;;;;5082304;28;20481;-91
2022/10/26 11:33:25;;;;;;;3.00;1.27;;;24.20;99.90;;;;;;5076741;28;20404;-88
2022/10/26 11:35:55;;;;;;;3.43;1.50;;;23.90;99.90;;;;;;5043632;28;20471;-91
2022/10/26 11:38:47;;;;;;;2.33;1.13;;;23.50;99.90;;;;;;5042442;28;20473;-91
2022/10/26 11:41:23;;;;;;;3.40;1.23;;;23.30;99.90;;;;;;5040835;28;20784;-90
2022/10/26 11:43:57;;;;;;;4.23;1.30;;;23.30;99.90;;;;;;5058445;28;20430;-90
2022/10/26 11:46:35;;;;;;;4.10;1.17;;;23.30;99.90;;;;;;5041468;28;20424;-90
2022/10/26 11:49:04;;;;;;;3.30;1.20;;;23.40;99.90;;;;;;5041304;28;20415;-90
2022/10/26 11:51:40;;;;;;;2.57;1.50;;;23.40;99.90;;;;;;5046669;28;20503;-90
2022/10/26 11:54:19;;;;;;;2.40;1.00;;;23.70;99.90;;;;;;5078693;28;20423;-91
2022/10/26 11:56:48;;;;;;;1.47;1.07;;;23.80;99.90;;;;;;5062693;28;20470;-90
2022/10/26 11:59:24;;;;;;;2.40;1.00;;;23.80;99.90;;;;;;5062306;28;20463;-91
2022/10/26 12:01:57;;;;;;;2.40;1.20;;;23.80;99.90;;;;;;5059813;28;20463;-91
2022/10/26 12:04:28;;;;;;;4.83;1.00;;;24.00;99.90;;;;;;5059780;28;20892;-89
2022/10/26 12:06:56;;;;;;;1.93;1.20;;;23.80;99.90;;;;;;5070739;28;20420;-89
2022/10/26 12:09:28;;;;;;;3.53;1.00;;;23.80;99.90;;;;;;5072341;28;20401;-90
2022/10/26 12:12:30;;;;;;;3.90;1.10;;;23.70;99.90;;;;;;5058243;28;20428;-90
2022/10/26 12:15:24;;;;;;;2.10;1.10;;;23.70;99.90;;;;;;5038984;28;20427;-90
2022/10/26 12:17:52;;;;;;;2.23;0.90;;;23.80;99.90;;;;;;5071332;28;20467;-89
2022/10/26 12:20:49;;;;;;;3.80;0.93;;;23.60;99.90;;;;;;5037966;28;20410;-90
2022/10/26 12:23:15;;;;;;;1.70;0.90;;;23.50;99.90;;;;;;5037401;28;20415;-89
2022/10/26 12:25:41;;;;;;;2.10;0.97;;;23.40;99.90;;;;;;5055984;28;20391;-89
2022/10/26 12:28:32;;;;;;;4.73;1.00;;;23.60;99.90;;;;;;5039978;28;20423;-89
2022/10/26 12:31:35;;;;;;;6.03;1.27;;;23.60;99.90;;;;;;5055309;28;20174;-89
2022/10/26 12:34:03;;;;;;;3.83;1.07;;;23.40;99.90;;;;;;5056986;28;20382;-91
2022/10/26 12:36:54;;;;;;;4.80;1.23;;;23.50;99.90;;;;;;5073435;28;20479;-89
2022/10/26 12:39:35;;;;;;;3.00;1.30;;;23.50;99.90;;;;;;5057144;28;20405;-89
2022/10/26 12:42:07;;;;;;;6.90;1.23;;;23.50;99.90;;;;;;5057851;28;20484;-89
2022/10/26 12:44:38;;;;;;;3.83;1.20;;;23.70;99.90;;;;;;5038422;28;20460;-90
2022/10/26 12:47:04;;;;;;;3.70;1.27;;;23.60;99.90;;;;;;5057881;28;20405;-91
2022/10/26 12:50:04;;;;;;;1.80;0.90;;;23.80;99.90;;;;;;5037683;28;20406;-90
2022/10/26 12:52:58;;;;;;;6.43;1.47;;;23.90;99.90;;;;;;5038204;28;20424;-90
2022/10/26 12:55:49;;;;;;;2.67;1.13;;;24.00;99.90;;;;;;5056355;28;20393;-90
2022/10/26 12:58:34;;;;;;;3.63;1.00;;;24.30;99.90;;;;;;5038188;28;20467;-90
2022/10/26 13:00:59;;;;;;;4.00;1.50;;;24.50;99.90;;;;;;5056386;28;20400;-89
2022/10/26 13:03:25;;;;;;;3.77;1.10;;;24.60;99.90;;;;;;5038929;28;20431;-91
2022/10/26 13:06:25;;;;;;;3.27;1.13;;;24.40;99.90;;;;;;5056794;28;20173;-89
2022/10/26 13:08:54;;;;;;;4.03;1.50;;;24.20;99.90;;;;;;5057385;28;20517;-90
2022/10/26 13:11:30;;;;;;;3.80;1.30;;;23.90;99.90;;;;;;5040498;28;20789;-90